Time;durP1;ratioP1;P1;durP2;ratioP2;P2;SDS_P1;SDS_P2;PMS_P1;PMS_P2;Temp;Humidity;BMP_temperature;BMP_pressure;BME280_temperature;BME280_humidity;BME280_pressure;Samples;Min_cycle;Max_cycle;Signal;HPM_P1;HPM_P2
2022/09/12 00:01:18;;;;;;;5.97;3.17;;;;;;;15.59;79.01;101770.75;6289645;28;20234;-81
2022/09/12 00:04:39;;;;;;;3.50;3.00;;;;;;;15.53;78.92;101765.91;6285499;28;20309;-80
2022/09/12 00:08:01;;;;;;;3.80;2.47;;;;;;;15.60;79.06;101762.47;6291370;28;20222;-81
2022/09/12 00:11:24;;;;;;;4.23;3.50;;;;;;;15.52;79.30;101769.63;6272235;28;20233;-80
2022/09/12 00:14:45;;;;;;;4.13;2.43;;;;;;;15.49;78.85;101765.34;6293734;28;20713;-81
2022/09/12 00:18:08;;;;;;;5.03;3.72;;;;;;;15.53;78.49;101772.22;6285617;28;20323;-81
2022/09/12 00:21:29;;;;;;;2.50;2.13;;;;;;;15.40;79.91;101771.63;6283749;28;20518;-83
2022/09/12 00:24:50;;;;;;;3.13;2.88;;;;;;;15.38;79.54;101767.31;6294513;28;20227;-82
2022/09/12 00:28:13;;;;;;;3.73;2.50;;;;;;;15.43;79.22;101765.06;6288481;28;20219;-82
2022/09/12 00:31:36;;;;;;;2.43;2.20;;;;;;;15.31;79.42;101760.78;6273391;28;20239;-83
2022/09/12 00:34:57;;;;;;;3.00;2.70;;;;;;;15.30;79.86;101754.47;6279924;28;20227;-86
2022/09/12 00:38:20;;;;;;;2.90;2.60;;;;;;;15.30;78.93;101746.31;6255374;28;20234;-85
2022/09/12 00:41:50;;;;;;;4.10;2.80;;;;;;;15.20;79.40;101745.47;6269887;28;20665;-84
2022/09/12 00:45:23;;;;;;;3.13;2.70;;;;;;;15.23;79.24;101759.63;6283882;28;20249;-84
2022/09/12 00:48:49;;;;;;;3.30;2.50;;;;;;;15.23;79.91;101757.94;6289318;28;20245;-85
2022/09/12 00:52:20;;;;;;;2.97;2.70;;;;;;;15.24;79.19;101752.34;6288493;28;20230;-84
2022/09/12 00:55:47;;;;;;;2.53;2.23;;;;;;;15.25;79.52;101745.06;6291971;28;20233;-84
2022/09/12 00:59:16;;;;;;;2.17;1.97;;;;;;;15.16;79.58;101749.50;6291300;28;20230;-84
2022/09/12 01:02:38;;;;;;;2.97;2.17;;;;;;;15.12;79.52;101750.78;6282433;28;20487;-84
2022/09/12 01:06:10;;;;;;;3.33;2.80;;;;;;;14.99;80.45;101745.66;6276805;28;20231;-84
2022/09/12 01:09:31;;;;;;;3.13;2.77;;;;;;;15.00;80.12;101747.34;6247400;28;20343;-84
2022/09/12 01:12:52;;;;;;;3.83;2.20;;;;;;;15.02;80.46;101739.03;6284861;28;20523;-83
2022/09/12 01:16:13;;;;;;;5.33;3.57;;;;;;;15.00;80.06;101730.19;6276912;28;20235;-82
2022/09/12 01:20:03;;;;;;;2.30;2.03;;;;;;;14.99;80.14;101737.50;6283738;28;20231;-83
2022/09/12 01:23:48;;;;;;;3.97;2.27;;;;;;;14.88;80.79;101739.47;6288105;28;20222;-82
2022/09/12 01:27:27;;;;;;;3.07;2.40;;;;;;;14.88;79.93;101734.06;6294812;28;20223;-84
2022/09/12 01:31:00;;;;;;;2.80;2.20;;;;;;;14.92;79.50;101736.34;6282129;28;20222;-84
2022/09/12 01:34:27;;;;;;;3.00;2.70;;;;;;;14.85;79.89;101732.47;6282452;28;20239;-83
2022/09/12 01:38:06;;;;;;;2.93;2.40;;;;;;;14.77;80.57;101732.31;6274543;28;21063;-83
2022/09/12 01:41:35;;;;;;;3.30;3.00;;;;;;;14.79;80.31;101729.50;6287395;28;20248;-83
2022/09/12 01:45:03;;;;;;;1.70;1.60;;;;;;;14.68;81.00;101725.06;6294494;28;20304;-83
2022/09/12 01:48:31;;;;;;;2.07;1.93;;;;;;;14.73;80.91;101722.75;6292938;28;20223;-83
2022/09/12 01:51:59;;;;;;;3.40;2.17;;;;;;;14.68;81.13;101719.63;6297216;28;20577;-82
2022/09/12 01:55:28;;;;;;;3.07;2.63;;;;;;;14.72;nan;101721.06;6284833;28;20217;-83
2022/09/12 01:58:58;;;;;;;2.60;2.40;;;;;;;14.70;81.17;101714.06;6252829;28;20234;-85
2022/09/12 02:02:24;;;;;;;1.90;1.80;;;;;;;14.74;80.22;101710.91;6267892;28;20234;-83
2022/09/12 02:05:50;;;;;;;3.63;3.33;;;;;;;14.76;80.39;101713.47;6299303;28;20243;-83
2022/09/12 02:09:17;;;;;;;3.03;1.97;;;;;;;14.73;80.15;101706.47;6283071;28;20227;-84
2022/09/12 02:12:45;;;;;;;3.88;2.63;;;;;;;14.61;80.40;101709.47;6270537;28;20222;-83
2022/09/12 02:16:11;;;;;;;2.83;2.63;;;;;;;14.53;80.87;101709.31;6285579;28;20243;-84
2022/09/12 02:19:36;;;;;;;2.53;2.03;;;;;;;14.48;81.39;101704.31;6285088;28;20254;-83
2022/09/12 02:23:02;;;;;;;2.70;1.97;;;;;;;14.54;81.09;101708.34;6280227;28;20230;-83
2022/09/12 02:26:29;;;;;;;2.30;2.07;;;;;;;14.50;81.00;101701.47;6284817;28;20545;-83
2022/09/12 02:29:50;;;;;;;3.03;2.37;;;;;;;14.41;81.07;101698.59;6278730;28;20225;-83
2022/09/12 02:33:20;;;;;;;2.10;1.70;;;;;;;14.36;81.53;101698.16;6265971;28;20222;-84
2022/09/12 02:36:49;;;;;;;3.17;2.90;;;;;;;14.46;81.44;101695.44;6279535;28;20573;-84
2022/09/12 02:40:13;;;;;;;2.67;2.40;;;;;;;14.45;81.57;101693.75;6280118;28;20217;-83
2022/09/12 02:43:37;;;;;;;3.27;2.90;;;;;;;14.43;81.47;101684.03;6282653;28;20231;-85
2022/09/12 02:47:04;;;;;;;2.23;2.10;;;;;;;14.37;81.49;101685.47;6275662;28;20259;-86
2022/09/12 02:50:26;;;;;;;2.90;2.63;;;;;;;14.36;81.60;101691.88;6287977;28;20243;-86
2022/09/12 02:53:47;;;;;;;2.20;2.00;;;;;;;14.30;82.33;101677.03;6276787;28;21346;-85
2022/09/12 02:57:17;;;;;;;3.60;2.60;;;;;;;14.20;82.59;101689.69;6281574;28;20777;-86
2022/09/12 03:00:51;;;;;;;3.43;3.13;;;;;;;14.28;82.19;101689.88;6287845;28;20238;-85
2022/09/12 03:04:40;;;;;;;3.07;2.63;;;;;;;14.28;82.96;101684.47;6271283;28;20237;-86
2022/09/12 03:08:41;;;;;;;22.53;17.13;;;;;;;14.16;83.60;101685.50;6275858;28;20250;-86
2022/09/12 03:12:13;;;;;;;10.40;8.90;;;;;;;14.23;83.46;101688.53;6276618;28;20973;-86
2022/09/12 03:15:46;;;;;;;4.30;3.90;;;;;;;14.22;83.41;101687.69;6284096;28;20282;-85
2022/09/12 03:19:18;;;;;;;4.77;4.23;;;;;;;14.22;83.20;101679.56;6284978;28;20253;-85
2022/09/12 03:22:52;;;;;;;3.30;3.00;;;;;;;14.07;83.16;101694.50;6280787;28;20744;-86
2022/09/12 03:26:20;;;;;;;4.00;3.13;;;;;;;14.16;83.33;101690.94;6273581;28;20258;-85
2022/09/12 03:29:43;;;;;;;3.07;2.60;;;;;;;14.27;82.94;101698.09;6258880;28;20250;-86
2022/09/12 03:33:05;;;;;;;3.23;2.63;;;;;;;14.20;83.69;101689.69;6266694;27;20321;-86
2022/09/12 03:36:32;;;;;;;4.03;3.07;;;;;;;14.13;83.32;101699.38;6276284;28;20227;-84
2022/09/12 03:39:54;;;;;;;5.80;3.97;;;;;;;14.07;83.53;101693.63;6277385;28;20313;-84
2022/09/12 03:43:21;;;;;;;16.10;14.50;;;;;;;14.17;83.25;101694.50;6285928;28;20241;-85
2022/09/12 03:46:42;;;;;;;13.90;8.13;;;;;;;14.03;83.74;101698.50;6284193;28;20218;-85
2022/09/12 03:50:11;;;;;;;3.97;3.57;;;;;;;14.02;83.84;101693.19;6290898;28;20231;-84
2022/09/12 03:53:32;;;;;;;5.90;4.00;;;;;;;14.03;83.53;101692.19;6287982;28;20227;-85
2022/09/12 03:56:56;;;;;;;5.23;4.80;;;;;;;13.93;83.98;101702.16;6243582;28;20501;-84
2022/09/12 04:00:18;;;;;;;5.10;3.50;;;;;;;13.90;83.83;101697.88;6258866;28;20242;-83
2022/09/12 04:03:40;;;;;;;3.60;3.30;;;;;;;13.83;84.15;101688.56;6286694;28;20234;-87
2022/09/12 04:07:06;;;;;;;5.40;4.90;;;;;;;13.85;83.90;101693.88;6291596;28;20241;-84
2022/09/12 04:10:28;;;;;;;4.70;3.73;;;;;;;13.86;83.92;101693.72;6282741;28;20689;-85
2022/09/12 04:13:50;;;;;;;7.30;4.13;;;;;;;13.90;83.86;101692.44;6283501;28;20317;-85
2022/09/12 04:17:13;;;;;;;4.13;2.53;;;;;;;14.00;83.13;101692.47;6282949;28;20254;-86
2022/09/12 04:20:34;;;;;;;2.47;2.27;;;;;;;14.02;83.11;101695.91;6279973;28;20230;-86
2022/09/12 04:23:57;;;;;;;4.77;3.23;;;;;;;13.93;84.20;101688.59;6269590;28;20230;-85
2022/09/12 04:27:17;;;;;;;4.27;3.20;;;;;;;13.87;83.79;101687.28;6271272;28;20259;-86
2022/09/12 04:30:41;;;;;;;4.57;2.93;;;;;;;13.77;84.45;101688.28;6276171;28;20230;-85
2022/09/12 04:34:05;;;;;;;2.77;2.20;;;;;;;13.88;83.76;101683.59;6268162;28;20489;-86
2022/09/12 04:37:27;;;;;;;20.00;17.60;;;;;;;13.86;84.18;101684.72;6281188;28;20227;-84
2022/09/12 04:40:49;;;;;;;13.30;10.87;;;;;;;13.81;84.67;101677.00;6284163;28;20230;-86
2022/09/12 04:44:13;;;;;;;5.40;4.17;;;;;;;13.84;84.50;101678.59;6286294;28;20259;-84
2022/09/12 04:47:37;;;;;;;4.83;3.43;;;;;;;13.92;84.18;101681.47;6278478;28;20237;-85
2022/09/12 04:51:09;;;;;;;2.73;1.97;;;;;;;13.80;84.01;101679.84;6279048;28;20830;-84
2022/09/12 04:54:33;;;;;;;4.20;2.50;;;;;;;13.79;83.85;101684.41;6268792;28;20330;-84
2022/09/12 04:57:58;;;;;;;3.53;3.20;;;;;;;13.79;83.98;101679.00;6266499;28;20259;-84
2022/09/12 05:01:21;;;;;;;3.73;2.40;;;;;;;13.69;84.40;101683.53;6272078;28;20224;-85
2022/09/12 05:04:46;;;;;;;3.17;2.13;;;;;;;13.77;84.06;101686.41;6288979;28;20262;-84
2022/09/12 05:08:08;;;;;;;3.07;2.87;;;;;;;13.84;84.16;101684.00;6279882;28;20258;-80
2022/09/12 05:11:30;;;;;;;3.93;3.03;;;;;;;13.76;84.15;101682.00;6269077;28;20242;-84
2022/09/12 05:14:54;;;;;;;5.90;5.27;;;;;;;13.81;84.13;101690.53;6293682;28;20242;-84
2022/09/12 05:18:17;;;;;;;7.87;7.07;;;;;;;13.86;84.42;101687.44;6286394;28;20855;-84
2022/09/12 05:21:38;;;;;;;5.07;3.93;;;;;;;13.89;84.19;101687.16;6264797;28;20407;-85
2022/09/12 05:24:59;;;;;;;7.00;5.13;;;;;;;13.79;84.26;101689.00;6287213;28;20227;-86
2022/09/12 05:28:21;;;;;;;7.67;4.27;;;;;;;13.76;84.39;101687.41;6268287;28;20234;-83
2022/09/12 05:31:44;;;;;;;6.53;4.23;;;;;;;13.89;84.47;101684.47;6279716;28;20235;-84
2022/09/12 05:35:05;;;;;;;6.33;4.40;;;;;;;13.56;85.32;101685.59;6287394;28;20233;-84
2022/09/12 05:38:27;;;;;;;6.13;4.47;;;;;;;13.18;87.39;101686.28;6269902;28;20254;-76
2022/09/12 05:41:49;;;;;;;11.47;5.30;;;;;;;13.11;87.87;101689.63;6271301;28;20232;-82
2022/09/12 05:45:10;;;;;;;6.77;4.40;;;;;;;13.27;87.31;101690.00;6281143;28;20230;-81
2022/09/12 05:48:34;;;;;;;4.90;3.77;;;;;;;13.54;86.91;101693.84;6255149;28;20239;-80
2022/09/12 05:51:55;;;;;;;5.20;4.57;;;;;;;13.73;86.41;101687.66;6266229;28;20231;-77
2022/09/12 05:55:16;;;;;;;8.47;4.70;;;;;;;13.83;86.04;101696.69;6275479;28;20313;-77
2022/09/12 05:58:39;;;;;;;6.80;5.10;;;;;;;13.98;85.77;101703.47;6283815;28;20227;-80
2022/09/12 06:02:01;;;;;;;15.23;12.87;;;;;;;14.27;84.59;101693.53;6283999;28;20225;-84
2022/09/12 06:05:23;;;;;;;9.07;5.80;;;;;;;14.10;84.53;101702.34;6281755;28;20254;-73
2022/09/12 06:08:46;;;;;;;8.17;4.37;;;;;;;14.22;84.75;101705.81;6277239;28;20240;-82
2022/09/12 06:12:07;;;;;;;6.60;4.63;;;;;;;14.14;84.84;101692.09;6285693;28;21107;-83
2022/09/12 06:15:28;;;;;;;6.77;5.47;;;;;;;14.35;84.16;101698.31;6284006;28;20345;-84
2022/09/12 06:18:52;;;;;;;5.40;4.07;;;;;;;14.36;84.03;101698.16;6267338;28;20267;-76
2022/09/12 06:22:15;;;;;;;7.83;5.50;;;;;;;14.52;83.64;101702.19;6262699;28;20327;-75
2022/09/12 06:25:36;;;;;;;5.07;4.53;;;;;;;14.53;83.11;101701.19;6267096;28;20239;-78
2022/09/12 06:28:59;;;;;;;5.50;4.70;;;;;;;14.77;82.67;101701.63;6265036;28;20238;-77
2022/09/12 06:32:20;;;;;;;6.83;4.40;;;;;;;14.80;82.89;101696.78;6260534;28;20231;-79
2022/09/12 06:35:42;;;;;;;4.77;4.13;;;;;;;14.79;82.24;101703.19;6271002;28;20281;-76
2022/09/12 06:39:07;;;;;;;4.67;4.23;;;;;;;14.93;82.04;101702.78;6278989;28;20619;-79
2022/09/12 06:42:28;;;;;;;4.43;4.03;;;;;;;14.86;82.27;101706.19;6275852;28;20219;-79
2022/09/12 06:45:52;;;;;;;5.60;4.73;;;;;;;14.80;82.96;101694.06;6291020;28;20250;-75
2022/09/12 06:49:14;;;;;;;6.50;4.53;;;;;;;14.88;82.59;101696.91;6281755;28;20234;-77
2022/09/12 06:52:35;;;;;;;4.80;3.83;;;;;;;14.91;82.64;101687.63;6274677;28;20817;-76
2022/09/12 06:55:58;;;;;;;6.70;6.00;;;;;;;14.93;82.33;101685.63;6274304;28;20262;-74
2022/09/12 06:59:19;;;;;;;7.87;5.63;;;;;;;14.96;82.94;101682.59;6277420;28;20787;-84
2022/09/12 07:02:40;;;;;;;4.20;3.80;;;;;;;14.76;83.30;101689.06;6269905;27;20226;-82
2022/09/12 07:06:07;;;;;;;4.03;3.27;;;;;;;14.41;84.92;101687.72;6255456;28;20266;-79
2022/09/12 07:09:28;;;;;;;4.60;3.57;;;;;;;14.51;85.34;101690.47;6269464;28;20226;-77
2022/09/12 07:12:50;;;;;;;4.47;3.63;;;;;;;14.97;84.28;101695.19;6277734;28;20234;-78
2022/09/12 07:16:12;;;;;;;3.60;3.30;;;;;;;15.06;83.88;101694.34;6271134;28;20231;-75
2022/09/12 07:19:33;;;;;;;3.40;2.60;;;;;;;15.39;81.88;101688.41;6276568;28;20239;-85
2022/09/12 07:22:55;;;;;;;3.57;2.70;;;;;;;15.41;82.39;101693.69;6276235;28;20230;-85
2022/09/12 07:26:17;;;;;;;3.30;3.00;;;;;;;15.26;82.64;101686.97;6290051;28;20242;-79
2022/09/12 07:29:39;;;;;;;3.27;2.73;;;;;;;15.47;81.96;101685.81;6278375;28;23956;-83
2022/09/12 07:33:00;;;;;;;3.10;2.80;;;;;;;15.52;81.94;101688.94;6276209;28;20529;-75
2022/09/12 07:36:24;;;;;;;4.03;3.63;;;;;;;15.69;81.38;101687.31;6268426;28;20505;-77
2022/09/12 07:39:45;;;;;;;5.37;3.20;;;;;;;15.65;81.11;101675.88;6279891;28;20226;-79
2022/09/12 07:43:06;;;;;;;3.90;3.20;;;;;;;16.01;79.66;101674.13;6288567;28;20235;-85
2022/09/12 07:46:30;;;;;;;4.17;3.17;;;;;;;16.04;79.72;101675.69;6275684;28;20239;-82
2022/09/12 07:49:51;;;;;;;3.97;3.35;;;;;;;16.15;79.15;101668.19;6264109;28;20316;-81
2022/09/12 07:53:12;;;;;;;3.47;3.10;;;;;;;16.54;77.99;101674.25;6285310;28;20234;-82
2022/09/12 07:56:33;;;;;;;4.05;3.00;;;;;;;16.49;77.95;101668.38;6280303;28;20230;-76
2022/09/12 07:59:57;;;;;;;2.90;2.60;;;;;;;16.71;77.75;101668.78;6267669;28;20261;-81
2022/09/12 08:03:19;;;;;;;5.90;4.22;;;;;;;16.76;76.61;101671.06;6268471;28;22113;-76
2022/09/12 08:06:40;;;;;;;4.33;3.23;;;;;;;17.20;75.82;101670.06;6265198;28;20226;-85
2022/09/12 08:10:04;;;;;;;4.70;2.90;;;;;;;17.63;74.50;101671.03;6268227;28;20223;-86
2022/09/12 08:13:28;;;;;;;5.97;3.53;;;;;;;17.42;73.98;101672.22;6269150;28;20333;-86
2022/09/12 08:17:04;;;;;;;2.75;2.55;;;;;;;17.74;73.50;101676.19;6266406;28;20258;-83
2022/09/12 08:20:26;;;;;;;2.78;2.58;;;;;;;17.96;72.76;101678.34;6268525;28;20226;-82
2022/09/12 08:23:48;;;;;;;3.65;3.03;;;;;;;18.00;71.81;101675.09;6279584;28;20254;-81
2022/09/12 08:27:09;;;;;;;5.22;2.92;;;;;;;18.15;70.88;101675.34;6278281;28;20230;-79
2022/09/12 08:30:30;;;;;;;2.90;2.70;;;;;;;18.06;71.54;101681.81;6278513;28;20636;-80
2022/09/12 08:33:51;;;;;;;2.53;2.33;;;;;;;18.26;71.16;101675.03;6285136;28;20232;-80
2022/09/12 08:37:14;;;;;;;5.07;3.60;;;;;;;18.29;70.48;101672.00;6288805;28;20243;-79
2022/09/12 08:40:45;;;;;;;3.35;2.83;;;;;;;18.30;70.39;101671.81;6282865;28;20279;-78
2022/09/12 08:44:25;;;;;;;4.40;2.65;;;;;;;18.50;69.52;101671.56;6288099;28;20229;-77
2022/09/12 08:47:47;;;;;;;2.55;2.38;;;;;;;18.99;68.83;101671.41;6273018;28;20234;-77
2022/09/12 08:51:12;;;;;;;2.45;1.83;;;;;;;18.87;67.15;101667.31;6291288;28;20322;-77
2022/09/12 08:54:35;;;;;;;4.82;2.70;;;;;;;18.84;66.53;101675.84;6289405;28;20975;-82
2022/09/12 08:57:57;;;;;;;2.75;2.55;;;;;;;18.95;65.81;101667.31;6289076;28;20674;-76
2022/09/12 09:01:27;;;;;;;3.03;2.55;;;;;;;19.30;65.78;101667.97;6287155;28;20237;-76
2022/09/12 09:04:51;;;;;;;2.20;2.00;;;;;;;19.24;64.53;101657.72;6288887;28;20242;-75
2022/09/12 09:08:30;;;;;;;1.80;1.63;;;;;;;19.70;63.47;101662.44;6283205;28;20596;-77
2022/09/12 09:12:05;;;;;;;1.63;1.52;;;;;;;19.47;64.03;101648.66;6286651;28;20231;-82
2022/09/12 09:15:39;;;;;;;1.95;1.85;;;;;;;19.63;63.02;101658.72;6287503;28;20260;-78
2022/09/12 09:19:04;;;;;;;1.77;1.38;;;;;;;20.02;62.50;101654.09;6280224;28;20221;-77
2022/09/12 09:22:38;;;;;;;2.80;1.85;;;;;;;20.23;62.51;101642.56;6300257;28;20231;-80
2022/09/12 09:26:06;;;;;;;2.42;2.05;;;;;;;19.60;62.17;101640.75;6283893;28;20672;-80
2022/09/12 09:29:33;;;;;;;2.25;2.03;;;;;;;20.19;62.26;101633.81;6285032;28;20237;-79
2022/09/12 09:32:57;;;;;;;2.33;2.15;;;;;;;20.09;62.27;101633.16;6291633;28;20246;-77
2022/09/12 09:36:22;;;;;;;2.53;1.63;;;;;;;20.09;61.83;101635.91;6293884;28;20230;-77
2022/09/12 09:39:58;;;;;;;3.35;2.17;;;;;;;20.41;61.37;101633.03;6289370;28;20231;-77
2022/09/12 09:43:22;;;;;;;1.42;1.33;;;;;;;20.13;62.19;101640.00;6293549;28;20230;-80
2022/09/12 09:46:45;;;;;;;2.50;2.38;;;;;;;19.82;62.91;101630.91;6296036;28;20254;-77
2022/09/12 09:50:06;;;;;;;1.83;1.65;;;;;;;20.22;61.28;101630.75;6288628;28;20256;-77
2022/09/12 09:53:34;;;;;;;1.58;1.48;;;;;;;20.18;62.54;101628.50;6285594;28;20659;-78
2022/09/12 09:56:56;;;;;;;1.20;1.10;;;;;;;20.27;61.13;101627.47;6291978;28;20652;-77
2022/09/12 10:00:25;;;;;;;1.45;1.20;;;;;;;20.77;60.08;101615.97;6289234;28;20237;-77
2022/09/12 10:03:53;;;;;;;2.40;1.85;;;;;;;20.22;62.06;101625.25;6288113;28;20234;-76
2022/09/12 10:07:19;;;;;;;1.67;1.58;;;;;;;20.96;59.53;101624.53;6284409;28;20256;-78
2022/09/12 10:10:53;;;;;;;1.52;1.20;;;;;;;20.00;62.14;101623.31;6296948;28;20230;-79
2022/09/12 10:14:37;;;;;;;2.20;1.58;;;;;;;20.74;59.43;101619.91;6258130;28;20238;-76
2022/09/12 10:17:58;;;;;;;2.45;1.85;;;;;;;21.63;57.69;101614.44;6270528;28;20226;-78
2022/09/12 10:21:28;;;;;;;2.70;1.67;;;;;;;21.84;56.38;101616.44;6280948;28;20227;-78
2022/09/12 10:24:52;;;;;;;1.05;1.02;;;;;;;21.39;56.30;101607.31;6262316;28;20230;-77
2022/09/12 10:28:25;;;;;;;1.83;1.60;;;;;;;21.34;56.93;101611.69;6264451;28;20528;-80
2022/09/12 10:31:51;;;;;;;2.20;1.02;;;;;;;22.00;55.65;101607.97;6283664;28;20300;-77
2022/09/12 10:35:19;;;;;;;2.78;1.10;;;;;;;21.36;57.43;101609.59;6282097;28;20226;-78
2022/09/12 10:38:49;;;;;;;2.22;1.55;;;;;;;21.50;56.65;101614.22;6276313;28;20230;-78
2022/09/12 10:42:14;;;;;;;2.38;2.17;;;;;;;22.32;55.17;101612.97;6270846;28;20226;-77
2022/09/12 10:45:37;;;;;;;1.55;1.02;;;;;;;23.02;53.84;101599.31;6275858;28;20231;-77
2022/09/12 10:49:21;;;;;;;2.38;1.65;;;;;;;22.47;53.75;101600.03;6285476;28;20227;-78
2022/09/12 10:52:42;;;;;;;1.38;1.27;;;;;;;23.20;52.85;101594.16;6271569;28;20608;-77
2022/09/12 10:56:09;;;;;;;1.55;1.45;;;;;;;22.62;53.12;101592.63;6268916;28;20305;-63
2022/09/12 10:59:40;;;;;;;1.92;1.35;;;;;;;24.22;50.21;101593.25;6275553;28;20321;-64
2022/09/12 11:03:15;;;;;;;1.35;1.20;;;;;;;23.20;50.78;101594.16;6275867;28;20229;-65
2022/09/12 11:06:44;;;;;;;2.47;1.45;;;;;;;22.80;51.34;101584.72;6275955;28;20262;-62
2022/09/12 11:10:21;;;;;;;1.75;0.80;;;;;;;23.69;50.36;101580.31;6270343;28;20230;-64
2022/09/12 11:13:59;;;;;;;1.52;1.10;;;;;;;24.60;48.25;101575.09;6276970;28;20222;-64
2022/09/12 11:17:30;;;;;;;1.65;1.25;;;;;;;24.62;47.13;101574.88;6285810;28;20643;-64
2022/09/12 11:21:02;;;;;;;1.63;1.00;;;;;;;25.14;48.19;101574.88;6286284;28;20316;-65
2022/09/12 11:24:36;;;;;;;1.83;1.10;;;;;;;24.45;48.33;101573.56;6287798;28;20254;-63
2022/09/12 11:28:14;;;;;;;0.98;0.93;;;;;;;24.50;48.21;101569.16;6284956;28;20231;-64
2022/09/12 11:32:05;;;;;;;0.90;0.60;;;;;;;24.82;47.70;101566.66;6285607;28;20235;-65
2022/09/12 11:35:28;;;;;;;0.50;0.50;;;;;;;24.90;47.47;101558.16;6289337;28;20230;-64
2022/09/12 11:39:01;;;;;;;0.70;0.70;;;;;;;24.40;46.94;101565.09;6285220;28;20226;-64
2022/09/12 11:42:29;;;;;;;0.73;0.70;;;;;;;24.76;46.67;101556.47;6289280;28;20312;-65
2022/09/12 11:45:52;;;;;;;1.73;0.70;;;;;;;24.33;47.13;101558.72;6285505;28;21687;-66
2022/09/12 11:49:36;;;;;;;0.60;0.55;;;;;;;24.16;47.37;101561.00;6295184;28;20219;-64
2022/09/12 11:53:04;;;;;;;0.82;0.82;;;;;;;24.32;47.82;101555.09;6288692;28;20227;-65
2022/09/12 11:56:25;;;;;;;1.85;0.57;;;;;;;24.99;45.63;101545.84;6293789;28;20226;-64
2022/09/12 11:59:51;;;;;;;1.08;0.98;;;;;;;23.79;47.88;101551.31;6286055;28;20546;-64
2022/09/12 12:03:18;;;;;;;2.10;0.75;;;;;;;24.23;46.56;101552.75;6286578;28;20322;-65
2022/09/12 12:06:49;;;;;;;1.05;0.80;;;;;;;23.79;47.63;101551.31;6278393;28;20254;-65
2022/09/12 12:10:25;;;;;;;1.67;0.80;;;;;;;24.83;45.65;101547.13;6292349;28;20222;-64
2022/09/12 12:13:48;;;;;;;1.85;0.93;;;;;;;25.00;44.98;101542.00;6289204;28;20226;-64
2022/09/12 12:17:15;;;;;;;1.67;0.75;;;;;;;26.00;43.42;101529.38;6286719;28;20261;-65
2022/09/12 12:20:36;;;;;;;1.08;1.00;;;;;;;26.85;41.69;101526.03;6294743;28;20603;-65
2022/09/12 12:24:14;;;;;;;0.93;0.90;;;;;;;26.46;41.77;101523.56;6290863;28;20800;-64
2022/09/12 12:27:52;;;;;;;1.05;0.75;;;;;;;26.30;43.42;101526.03;6284838;28;20325;-65
2022/09/12 12:31:13;;;;;;;1.08;1.02;;;;;;;26.74;42.20;101528.72;6286248;28;20241;-65
2022/09/12 12:34:37;;;;;;;0.98;0.98;;;;;;;29.27;37.61;101519.03;6284495;28;20226;-65
2022/09/12 12:37:58;;;;;;;0.70;0.70;;;;;;;27.01;40.99;101518.22;6283518;28;20231;-64
2022/09/12 12:41:46;;;;;;;1.02;0.93;;;;;;;27.88;39.80;101518.72;6285500;28;20239;-66
2022/09/12 12:45:48;;;;;;;1.00;0.88;;;;;;;26.67;40.95;101514.88;6283816;28;20257;-64
2022/09/12 12:49:18;;;;;;;1.65;0.70;;;;;;;27.04;42.08;101510.31;6290512;28;20222;-64
2022/09/12 12:52:48;;;;;;;1.10;0.80;;;;;;;24.95;45.42;101511.47;6289719;28;20233;-65
2022/09/12 12:56:28;;;;;;;0.82;0.82;;;;;;;23.94;48.35;101518.09;6287923;28;20765;-65
2022/09/12 12:59:53;;;;;;;1.90;0.75;;;;;;;23.20;49.00;101514.34;6286212;28;20903;-65
2022/09/12 13:03:28;;;;;;;2.72;1.20;;;;;;;23.43;50.10;101514.06;6286052;28;20253;-64
2022/09/12 13:06:59;;;;;;;1.13;1.00;;;;;;;23.14;50.56;101506.91;6279540;28;20230;-64
2022/09/12 13:10:23;;;;;;;0.65;0.65;;;;;;;23.43;50.36;101494.81;6289661;28;20820;-64
2022/09/12 13:13:50;;;;;;;1.27;0.98;;;;;;;23.13;49.90;101493.38;6292024;28;20227;-63
2022/09/12 13:17:18;;;;;;;0.85;0.85;;;;;;;23.00;50.79;101488.63;6283187;28;20865;-65
2022/09/12 13:20:48;;;;;;;2.25;1.15;;;;;;;23.72;49.47;101489.84;6283251;28;20227;-63
2022/09/12 13:24:17;;;;;;;0.73;0.60;;;;;;;23.35;49.11;101467.47;6278410;28;20226;-65
2022/09/12 13:27:38;;;;;;;1.02;1.02;;;;;;;23.79;48.37;101471.47;6284181;28;20258;-66
2022/09/12 13:31:02;;;;;;;0.95;0.95;;;;;;;24.66;46.30;101453.97;6293308;28;20250;-65
2022/09/12 13:34:26;;;;;;;2.40;1.15;;;;;;;24.27;46.53;101454.81;6292420;28;20230;-64
2022/09/12 13:37:55;;;;;;;3.38;3.08;;;;;;;25.60;44.70;101442.22;6280463;28;20227;-64
2022/09/12 13:41:35;;;;;;;5.18;1.65;;;;;;;25.13;43.34;101432.44;6295855;28;20222;-64
2022/09/12 13:45:02;;;;;;;1.02;1.00;;;;;;;23.08;47.22;101444.44;6283273;28;21912;-65
2022/09/12 13:48:25;;;;;;;0.95;0.90;;;;;;;23.10;48.39;101435.97;6237819;28;20222;-66
2022/09/12 13:51:51;;;;;;;0.95;0.82;;;;;;;23.52;47.53;101428.38;6295260;28;20226;-66
2022/09/12 13:55:27;;;;;;;0.85;0.85;;;;;;;22.94;48.60;101415.19;6297151;28;20210;-65
2022/09/12 13:58:55;;;;;;;0.70;0.70;;;;;;;22.65;48.43;101423.69;6296735;28;20226;-65
2022/09/12 14:02:19;;;;;;;1.48;1.10;;;;;;;23.01;49.11;101422.41;6282500;28;20215;-65
2022/09/12 14:05:43;;;;;;;1.83;1.65;;;;;;;22.48;49.11;101419.50;6293030;28;20242;-65
2022/09/12 14:09:13;;;;;;;3.25;0.80;;;;;;;23.04;49.95;101413.75;6289691;28;20231;-65
2022/09/12 14:12:42;;;;;;;1.08;1.02;;;;;;;22.90;49.46;101417.50;6286011;28;20226;-66
2022/09/12 14:16:08;;;;;;;1.00;1.00;;;;;;;22.72;50.11;101416.31;6289791;28;20625;-66
2022/09/12 14:19:31;;;;;;;1.40;1.27;;;;;;;22.48;50.15;101411.25;6293298;28;20222;-64
2022/09/12 14:22:53;;;;;;;1.77;1.23;;;;;;;23.69;48.01;101404.91;6290901;28;20226;-63
2022/09/12 14:26:16;;;;;;;1.00;0.80;;;;;;;25.36;45.09;101399.66;6287147;28;20223;-65
2022/09/12 14:29:42;;;;;;;1.60;1.02;;;;;;;26.03;42.09;101401.78;6288960;28;20227;-65
2022/09/12 14:33:14;;;;;;;1.35;1.20;;;;;;;26.26;41.99;101398.44;6286637;28;20234;-64
2022/09/12 14:36:39;;;;;;;1.90;1.30;;;;;;;25.69;43.33;101399.47;6268915;28;20234;-64
2022/09/12 14:40:01;;;;;;;1.90;1.38;;;;;;;25.56;43.53;101399.56;6287770;28;20223;-66
2022/09/12 14:43:26;;;;;;;1.35;1.25;;;;;;;25.06;44.25;101392.97;6287709;28;20788;-65
2022/09/12 14:46:49;;;;;;;1.33;1.23;;;;;;;24.36;46.40;101393.75;6289104;28;20226;-65
2022/09/12 14:50:16;;;;;;;2.08;1.05;;;;;;;24.55;45.21;101383.75;6285331;28;20227;-65
2022/09/12 14:53:38;;;;;;;1.63;0.73;;;;;;;24.50;46.24;101383.53;6280890;28;20676;-65
2022/09/12 14:57:01;;;;;;;2.72;1.50;;;;;;;24.85;46.04;101376.69;6285313;28;21417;-65
2022/09/12 15:00:23;;;;;;;0.68;0.68;;;;;;;24.66;46.19;101374.81;6282698;28;20223;-65
2022/09/12 15:03:52;;;;;;;1.15;1.13;;;;;;;24.38;46.72;101375.09;6283075;28;20227;-64
2022/09/12 15:07:14;;;;;;;0.95;0.85;;;;;;;24.37;47.37;101370.63;6282477;28;20265;-62
2022/09/12 15:10:37;;;;;;;1.42;1.35;;;;;;;23.30;47.92;101371.72;6289057;28;20293;-63
2022/09/12 15:13:58;;;;;;;1.15;1.05;;;;;;;23.74;48.26;101366.56;6290767;28;20227;-63
2022/09/12 15:17:19;;;;;;;1.27;1.25;;;;;;;23.43;48.63;101348.94;6292987;28;20234;-63
2022/09/12 15:20:43;;;;;;;1.58;1.17;;;;;;;23.96;48.49;101344.34;6287915;28;20210;-63
2022/09/12 15:24:04;;;;;;;1.45;1.13;;;;;;;23.93;48.63;101347.53;6284775;28;20223;-63
2022/09/12 15:27:26;;;;;;;1.38;1.27;;;;;;;23.94;48.44;101347.31;6289825;28;23520;-77
2022/09/12 15:30:48;;;;;;;2.00;1.38;;;;;;;24.17;47.35;101349.66;6296103;28;20302;-78
2022/09/12 15:34:09;;;;;;;3.55;1.88;;;;;;;23.88;47.11;101339.03;6296451;28;20226;-77
2022/09/12 15:37:32;;;;;;;1.27;1.17;;;;;;;23.96;47.14;101334.16;6289872;28;20231;-77
2022/09/12 15:40:53;;;;;;;2.03;1.83;;;;;;;24.45;46.72;101339.22;6298602;28;20603;-77
2022/09/12 15:44:14;;;;;;;1.30;1.20;;;;;;;23.66;48.57;101342.00;6291951;28;20230;-77
2022/09/12 15:47:35;;;;;;;12.25;2.55;;;;;;;23.54;48.60;101335.41;6292334;28;20234;-78
2022/09/12 15:51:00;;;;;;;2.70;1.70;;;;;;;23.49;49.29;101335.19;6284615;28;20250;-78
2022/09/12 15:54:22;;;;;;;3.85;1.42;;;;;;;23.27;49.98;101330.88;6288272;28;20237;-79
2022/09/12 15:57:44;;;;;;;1.50;1.10;;;;;;;23.00;50.71;101323.59;6289020;28;20357;-76